Time,TemperatureF,DewpointF,PressureIn,WindDirection,WindDirectionDegrees,WindSpeedMPH,WindSpeedGustMPH,Humidity,HourlyPrecipIn,Conditions,Clouds,dailyrainin,SoftwareType,DateUTC
2013-07-31 00:00:00,81.0,-99.9,30.07,SE,140,14.0,15.0,-999,-99.99,,,-99.99,,2013-07-31 05:00:00,
2013-07-31 00:22:00,81.0,-99.9,30.07,SE,140,14.0,15.0,-999,-99.99,,,-99.99,,2013-07-31 05:22:00,
2013-07-31 00:32:00,81.0,-99.9,30.07,SE,140,14.0,15.0,-999,-99.99,,,-99.99,,2013-07-31 05:32:00,
2013-07-31 00:43:00,81.0,-99.9,30.07,SE,140,14.0,15.0,-999,-99.99,,,-99.99,,2013-07-31 05:43:00,
2013-07-31 00:52:00,81.0,-99.9,30.07,SE,140,14.0,15.0,-999,-99.99,,,-99.99,,2013-07-31 05:52:00,
2013-07-31 01:00:00,81.0,-99.9,30.06,SSE,150,13.0,13.0,-999,-99.99,,,-99.99,,2013-07-31 06:00:00,
2013-07-31 01:22:00,81.0,-99.9,30.06,SSE,150,13.0,13.0,-999,-99.99,,,-99.99,,2013-07-31 06:22:00,
2013-07-31 01:32:00,81.0,-99.9,30.06,SSE,150,13.0,13.0,-999,-99.99,,,-99.99,,2013-07-31 06:32:00,
2013-07-31 01:43:00,81.0,-99.9,30.06,SSE,150,13.0,13.0,-999,-99.99,,,-99.99,,2013-07-31 06:43:00,
2013-07-31 01:53:00,81.0,-99.9,30.06,SSE,150,13.0,13.0,-999,-99.99,,,-99.99,,2013-07-31 06:53:00,
2013-07-31 02:00:00,80.0,-99.9,30.06,SSE,160,12.0,13.0,-999,-99.99,,,-99.99,,2013-07-31 07:00:00,
2013-07-31 02:22:00,80.0,-99.9,30.06,SSE,160,12.0,13.0,-999,-99.99,,,-99.99,,2013-07-31 07:22:00,
2013-07-31 02:32:00,80.0,-99.9,30.06,SSE,160,12.0,13.0,-999,-99.99,,,-99.99,,2013-07-31 07:32:00,
2013-07-31 02:43:00,80.0,-99.9,30.06,SSE,160,12.0,13.0,-999,-99.99,,,-99.99,,2013-07-31 07:43:00,
2013-07-31 02:52:00,80.0,-99.9,30.06,SSE,160,12.0,13.0,-999,-99.99,,,-99.99,,2013-07-31 07:52:00,
2013-07-31 03:00:00,80.0,-99.9,30.05,SSE,160,12.0,13.0,-999,-99.99,,,-99.99,,2013-07-31 08:00:00,
2013-07-31 03:22:00,80.0,-99.9,30.05,SSE,160,12.0,13.0,-999,-99.99,,,-99.99,,2013-07-31 08:22:00,
2013-07-31 03:33:00,80.0,-99.9,30.05,SSE,160,12.0,13.0,-999,-99.99,,,-99.99,,2013-07-31 08:33:00,
2013-07-31 03:42:00,80.0,-99.9,30.05,SSE,160,12.0,13.0,-999,-99.99,,,-99.99,,2013-07-31 08:42:00,
2013-07-31 03:53:00,80.0,-99.9,30.05,SSE,160,12.0,13.0,-999,-99.99,,,-99.99,,2013-07-31 08:53:00,
2013-07-31 04:00:00,80.0,-99.9,30.05,South,170,10.0,12.0,-999,-99.99,,,-99.99,,2013-07-31 09:00:00,
2013-07-31 04:22:00,80.0,-99.9,30.05,South,170,10.0,12.0,-999,-99.99,,,-99.99,,2013-07-31 09:22:00,
2013-07-31 04:33:00,80.0,-99.9,30.05,South,170,10.0,12.0,-999,-99.99,,,-99.99,,2013-07-31 09:33:00,
2013-07-31 04:44:00,80.0,-99.9,30.05,South,170,10.0,12.0,-999,-99.99,,,-99.99,,2013-07-31 09:44:00,
2013-07-31 04:52:00,80.0,-99.9,30.05,South,170,10.0,12.0,-999,-99.99,,,-99.99,,2013-07-31 09:52:00,
2013-07-31 05:00:00,80.0,-99.9,30.05,South,170,10.0,12.0,-999,-99.99,,,-99.99,,2013-07-31 10:00:00,
2013-07-31 05:23:00,80.0,-99.9,30.05,South,170,10.0,12.0,-999,-99.99,,,-99.99,,2013-07-31 10:23:00,
2013-07-31 05:32:00,80.0,-99.9,30.05,South,170,10.0,12.0,-999,-99.99,,,-99.99,,2013-07-31 10:32:00,
2013-07-31 05:44:00,80.0,-99.9,30.05,South,170,10.0,12.0,-999,-99.99,,,-99.99,,2013-07-31 10:44:00,
2013-07-31 05:52:00,80.0,-99.9,30.05,South,170,10.0,12.0,-999,-99.99,,,-99.99,,2013-07-31 10:52:00,
2013-07-31 06:00:00,80.0,-99.9,30.05,South,170,9.0,9.0,-999,-99.99,,,-99.99,,2013-07-31 11:00:00,
2013-07-31 06:22:00,80.0,-99.9,30.05,South,170,9.0,9.0,-999,-99.99,,,-99.99,,2013-07-31 11:22:00,
2013-07-31 06:33:00,80.0,-99.9,30.05,South,170,9.0,9.0,-999,-99.99,,,-99.99,,2013-07-31 11:33:00,
2013-07-31 06:43:00,80.0,-99.9,30.05,South,170,9.0,9.0,-999,-99.99,,,-99.99,,2013-07-31 11:43:00,
2013-07-31 06:53:00,80.0,-99.9,30.05,South,170,9.0,9.0,-999,-99.99,,,-99.99,,2013-07-31 11:53:00,
2013-07-31 07:00:00,80.0,-99.9,30.06,SSE,160,8.0,9.0,-999,-99.99,,,-99.99,,2013-07-31 12:00:00,
2013-07-31 07:22:00,80.0,-99.9,30.06,SSE,160,8.0,9.0,-999,-99.99,,,-99.99,,2013-07-31 12:22:00,
2013-07-31 07:33:00,80.0,-99.9,30.06,SSE,160,8.0,9.0,-999,-99.99,,,-99.99,,2013-07-31 12:33:00,
2013-07-31 07:43:00,80.0,-99.9,30.06,SSE,160,8.0,9.0,-999,-99.99,,,-99.99,,2013-07-31 12:43:00,
2013-07-31 07:53:00,80.0,-99.9,30.06,SSE,160,8.0,9.0,-999,-99.99,,,-99.99,,2013-07-31 12:53:00,
2013-07-31 08:00:00,80.0,-99.9,30.07,South,170,7.0,8.0,-999,-99.99,,,-99.99,,2013-07-31 13:00:00,
2013-07-31 08:22:00,80.0,-99.9,30.07,South,170,7.0,8.0,-999,-99.99,,,-99.99,,2013-07-31 13:22:00,
2013-07-31 08:33:00,80.0,-99.9,30.07,South,170,7.0,8.0,-999,-99.99,,,-99.99,,2013-07-31 13:33:00,
2013-07-31 08:43:00,80.0,-99.9,30.07,South,170,7.0,8.0,-999,-99.99,,,-99.99,,2013-07-31 13:43:00,
2013-07-31 08:53:00,80.0,-99.9,30.07,South,170,7.0,8.0,-999,-99.99,,,-99.99,,2013-07-31 13:53:00,
2013-07-31 09:00:00,81.0,-99.9,30.09,SE,140,3.0,3.0,-999,-99.99,,,-99.99,,2013-07-31 14:00:00,
2013-07-31 09:34:00,81.0,-99.9,30.09,SE,140,3.0,3.0,-999,-99.99,,,-99.99,,2013-07-31 14:34:00,
2013-07-31 09:43:00,81.0,-99.9,30.09,SE,140,3.0,3.0,-999,-99.99,,,-99.99,,2013-07-31 14:43:00,
2013-07-31 09:53:00,81.0,-99.9,30.09,SE,140,3.0,3.0,-999,-99.99,,,-99.99,,2013-07-31 14:53:00,
2013-07-31 10:00:00,81.0,-99.9,30.09,East,90,5.0,5.0,-999,-99.99,,,-99.99,,2013-07-31 15:00:00,
2013-07-31 10:33:00,81.0,-99.9,30.09,East,90,5.0,5.0,-999,-99.99,,,-99.99,,2013-07-31 15:33:00,
2013-07-31 10:44:00,81.0,-99.9,30.09,East,90,5.0,5.0,-999,-99.99,,,-99.99,,2013-07-31 15:44:00,
2013-07-31 10:53:00,81.0,-99.9,30.09,East,90,5.0,5.0,-999,-99.99,,,-99.99,,2013-07-31 15:53:00,
2013-07-31 11:00:00,81.0,-99.9,30.10,East,100,3.0,5.0,-999,-99.99,,,-99.99,,2013-07-31 16:00:00,
2013-07-31 11:33:00,81.0,-99.9,30.10,East,100,3.0,5.0,-999,-99.99,,,-99.99,,2013-07-31 16:33:00,
2013-07-31 11:44:00,81.0,-99.9,30.10,East,100,3.0,5.0,-999,-99.99,,,-99.99,,2013-07-31 16:44:00,
2013-07-31 11:53:00,81.0,-99.9,30.10,East,100,3.0,5.0,-999,-99.99,,,-99.99,,2013-07-31 16:53:00,
2013-07-31 12:00:00,82.0,-99.9,30.08,SE,130,7.0,8.0,-999,-99.99,,,-99.99,,2013-07-31 17:00:00,
2013-07-31 12:22:00,82.0,-99.9,30.08,SE,130,7.0,8.0,-999,-99.99,,,-99.99,,2013-07-31 17:22:00,
2013-07-31 12:33:00,82.0,-99.9,30.08,SE,130,7.0,8.0,-999,-99.99,,,-99.99,,2013-07-31 17:33:00,
2013-07-31 12:43:00,82.0,-99.9,30.08,SE,130,7.0,8.0,-999,-99.99,,,-99.99,,2013-07-31 17:43:00,
2013-07-31 12:53:00,82.0,-99.9,30.08,SE,130,7.0,8.0,-999,-99.99,,,-99.99,,2013-07-31 17:53:00,
2013-07-31 13:00:00,82.0,-99.9,30.07,ESE,120,8.0,9.0,-999,-99.99,,,-99.99,,2013-07-31 18:00:00,
2013-07-31 13:23:00,82.0,-99.9,30.07,ESE,120,8.0,9.0,-999,-99.99,,,-99.99,,2013-07-31 18:23:00,
2013-07-31 13:33:00,82.0,-99.9,30.07,ESE,120,8.0,9.0,-999,-99.99,,,-99.99,,2013-07-31 18:33:00,
2013-07-31 13:43:00,82.0,-99.9,30.07,ESE,120,8.0,9.0,-999,-99.99,,,-99.99,,2013-07-31 18:43:00,
2013-07-31 13:52:00,82.0,-99.9,30.07,ESE,120,8.0,9.0,-999,-99.99,,,-99.99,,2013-07-31 18:52:00,
2013-07-31 14:00:00,82.0,-99.9,30.05,ESE,120,9.0,9.0,-999,-99.99,,,-99.99,,2013-07-31 19:00:00,
2013-07-31 14:23:00,82.0,-99.9,30.05,ESE,120,9.0,9.0,-999,-99.99,,,-99.99,,2013-07-31 19:23:00,
2013-07-31 14:33:00,82.0,-99.9,30.05,ESE,120,9.0,9.0,-999,-99.99,,,-99.99,,2013-07-31 19:33:00,
2013-07-31 14:43:00,82.0,-99.9,30.05,ESE,120,9.0,9.0,-999,-99.99,,,-99.99,,2013-07-31 19:43:00,
2013-07-31 14:53:00,82.0,-99.9,30.05,ESE,120,9.0,9.0,-999,-99.99,,,-99.99,,2013-07-31 19:53:00,
2013-07-31 16:00:00,82.0,-99.9,30.02,ESE,120,12.0,13.0,-999,-99.99,,,-99.99,,2013-07-31 21:00:00,
2013-07-31 16:22:00,82.0,-99.9,30.02,ESE,120,12.0,13.0,-999,-99.99,,,-99.99,,2013-07-31 21:22:00,
2013-07-31 16:33:00,82.0,-99.9,30.02,ESE,120,12.0,13.0,-999,-99.99,,,-99.99,,2013-07-31 21:33:00,
2013-07-31 16:43:00,82.0,-99.9,30.02,ESE,120,12.0,13.0,-999,-99.99,,,-99.99,,2013-07-31 21:43:00,
2013-07-31 16:53:00,82.0,-99.9,30.02,ESE,120,12.0,13.0,-999,-99.99,,,-99.99,,2013-07-31 21:53:00,
2013-07-31 17:00:00,82.0,-99.9,30.00,ESE,120,13.0,14.0,-999,-99.99,,,-99.99,,2013-07-31 22:00:00,
2013-07-31 17:22:00,82.0,-99.9,30.00,ESE,120,13.0,14.0,-999,-99.99,,,-99.99,,2013-07-31 22:22:00,
2013-07-31 17:33:00,82.0,-99.9,30.00,ESE,120,13.0,14.0,-999,-99.99,,,-99.99,,2013-07-31 22:33:00,
2013-07-31 17:43:00,82.0,-99.9,30.00,ESE,120,13.0,14.0,-999,-99.99,,,-99.99,,2013-07-31 22:43:00,
2013-07-31 17:53:00,82.0,-99.9,30.00,ESE,120,13.0,14.0,-999,-99.99,,,-99.99,,2013-07-31 22:53:00,
2013-07-31 18:00:00,82.0,-99.9,29.98,ESE,120,13.0,14.0,-999,-99.99,,,-99.99,,2013-07-31 23:00:00,
2013-07-31 18:22:00,82.0,-99.9,29.98,ESE,120,13.0,14.0,-999,-99.99,,,-99.99,,2013-07-31 23:22:00,
2013-07-31 18:32:00,82.0,-99.9,29.98,ESE,120,13.0,14.0,-999,-99.99,,,-99.99,,2013-07-31 23:32:00,
2013-07-31 18:43:00,82.0,-99.9,29.98,ESE,120,13.0,14.0,-999,-99.99,,,-99.99,,2013-07-31 23:43:00,
2013-07-31 18:53:00,82.0,-99.9,29.98,ESE,120,13.0,14.0,-999,-99.99,,,-99.99,,2013-07-31 23:53:00,
2013-07-31 19:00:00,82.0,-99.9,29.98,ESE,120,12.0,13.0,-999,-99.99,,,-99.99,,2013-08-01 00:00:00,
2013-07-31 19:22:00,82.0,-99.9,29.98,ESE,120,12.0,13.0,-999,-99.99,,,-99.99,,2013-08-01 00:22:00,
2013-07-31 19:32:00,82.0,-99.9,29.98,ESE,120,12.0,13.0,-999,-99.99,,,-99.99,,2013-08-01 00:32:00,
2013-07-31 19:43:00,82.0,-99.9,29.98,ESE,120,12.0,13.0,-999,-99.99,,,-99.99,,2013-08-01 00:43:00,
2013-07-31 19:52:00,82.0,-99.9,29.98,ESE,120,12.0,13.0,-999,-99.99,,,-99.99,,2013-08-01 00:52:00,
2013-07-31 20:00:00,82.0,-99.9,29.98,ESE,120,10.0,13.0,-999,-99.99,,,-99.99,,2013-08-01 01:00:00,
2013-07-31 20:22:00,82.0,-99.9,29.98,ESE,120,10.0,13.0,-999,-99.99,,,-99.99,,2013-08-01 01:22:00,
2013-07-31 20:33:00,82.0,-99.9,29.98,ESE,120,10.0,13.0,-999,-99.99,,,-99.99,,2013-08-01 01:33:00,
2013-07-31 20:43:00,82.0,-99.9,29.98,ESE,120,10.0,13.0,-999,-99.99,,,-99.99,,2013-08-01 01:43:00,
2013-07-31 20:53:00,82.0,-99.9,29.98,ESE,120,10.0,13.0,-999,-99.99,,,-99.99,,2013-08-01 01:53:00,
2013-07-31 21:00:00,82.0,-99.9,29.97,SE,130,12.0,13.0,-999,-99.99,,,-99.99,,2013-08-01 02:00:00,
2013-07-31 21:22:00,82.0,-99.9,29.97,SE,130,12.0,13.0,-999,-99.99,,,-99.99,,2013-08-01 02:22:00,
2013-07-31 21:32:00,82.0,-99.9,29.97,SE,130,12.0,13.0,-999,-99.99,,,-99.99,,2013-08-01 02:32:00,
2013-07-31 21:43:00,82.0,-99.9,29.97,SE,130,12.0,13.0,-999,-99.99,,,-99.99,,2013-08-01 02:43:00,
2013-07-31 21:53:00,82.0,-99.9,29.97,SE,130,12.0,13.0,-999,-99.99,,,-99.99,,2013-08-01 02:53:00,
2013-07-31 22:00:00,81.0,-99.9,29.98,SE,130,10.0,12.0,-999,-99.99,,,-99.99,,2013-08-01 03:00:00,
2013-07-31 22:32:00,81.0,-99.9,29.98,SE,130,10.0,12.0,-999,-99.99,,,-99.99,,2013-08-01 03:32:00,
2013-07-31 22:43:00,81.0,-99.9,29.98,SE,130,10.0,12.0,-999,-99.99,,,-99.99,,2013-08-01 03:43:00,
2013-07-31 22:53:00,81.0,-99.9,29.98,SE,130,10.0,12.0,-999,-99.99,,,-99.99,,2013-08-01 03:53:00,
2013-07-31 23:00:00,81.0,-99.9,30.00,SSE,150,9.0,10.0,-999,-99.99,,,-99.99,,2013-08-01 04:00:00,
2013-07-31 23:22:00,81.0,-99.9,30.00,SSE,150,9.0,10.0,-999,-99.99,,,-99.99,,2013-08-01 04:22:00,
2013-07-31 23:33:00,81.0,-99.9,30.00,SSE,150,9.0,10.0,-999,-99.99,,,-99.99,,2013-08-01 04:33:00,
2013-07-31 23:43:00,81.0,-99.9,30.00,SSE,150,9.0,10.0,-999,-99.99,,,-99.99,,2013-08-01 04:43:00,
2013-07-31 23:53:00,81.0,-99.9,30.00,SSE,150,9.0,10.0,-999,-99.99,,,-99.99,,2013-08-01 04:53:00,